createdAt,value
2018-04-16T00:00:38.434Z,100345.13
2018-04-16T00:03:05.921Z,100343.02
2018-04-16T00:05:33.416Z,100346.13
2018-04-16T00:08:00.976Z,100352.64
2018-04-16T00:10:28.490Z,100348.52
2018-04-16T00:12:55.992Z,100337.30
2018-04-16T00:15:23.493Z,100333.78
2018-04-16T00:17:50.991Z,100323.75
2018-04-16T00:20:18.535Z,100326.31
2018-04-16T00:22:46.036Z,100317.63
2018-04-16T00:25:13.498Z,100312.79
2018-04-16T00:27:40.976Z,100318.64
2018-04-16T00:30:08.468Z,100309.21
2018-04-16T00:32:41.488Z,100309.64
2018-04-16T00:35:14.667Z,100312.48
2018-04-16T00:37:47.889Z,100311.48
2018-04-16T00:40:21.046Z,100318.06
2018-04-16T00:42:54.215Z,100309.43
2018-04-16T00:45:27.300Z,100310.96
2018-04-16T00:48:00.507Z,100312.66
2018-04-16T00:50:33.711Z,100319.98
2018-04-16T00:53:06.842Z,100314.15
2018-04-16T00:55:39.936Z,100312.25
2018-04-16T00:58:13.152Z,100310.64
2018-04-16T01:00:46.355Z,100317.36
2018-04-16T01:03:19.585Z,100316.20
2018-04-16T01:05:52.629Z,100312.80
2018-04-16T01:08:25.865Z,100316.47
2018-04-16T01:10:58.887Z,100327.19
2018-04-16T01:13:32.168Z,100324.73
2018-04-16T01:16:05.248Z,100317.88
2018-04-16T01:18:38.497Z,100320.58
2018-04-16T01:21:11.681Z,100327.43
2018-04-16T01:23:44.929Z,100321.98
2018-04-16T01:26:18.040Z,100328.92
2018-04-16T01:28:51.198Z,100326.63
2018-04-16T01:31:24.265Z,100329.24
2018-04-16T01:33:57.532Z,100314.61
2018-04-16T01:36:30.732Z,100310.12
2018-04-16T01:39:03.909Z,100320.38
2018-04-16T01:41:37.086Z,100310.83
2018-04-16T01:44:10.191Z,100305.80
2018-04-16T01:46:43.388Z,100307.70
2018-04-16T01:49:16.676Z,100305.05
2018-04-16T01:51:49.878Z,100299.34
2018-04-16T01:54:23.037Z,100291.67
2018-04-16T01:56:56.200Z,100293.41
2018-04-16T01:59:29.455Z,100286.83
2018-04-16T02:02:02.693Z,100285.95
2018-04-16T02:04:35.759Z,100282.90
2018-04-16T02:07:08.916Z,100276.04
2018-04-16T02:09:42.149Z,100268.02
2018-04-16T02:12:15.147Z,100268.47
2018-04-16T02:14:48.285Z,100261.85
2018-04-16T02:17:21.380Z,100255.41
2018-04-16T02:19:54.545Z,100262.54
2018-04-16T02:22:27.701Z,100257.03
2018-04-16T02:25:00.913Z,100247.59
2018-04-16T02:27:34.159Z,100253.63
2018-04-16T02:30:07.335Z,100250.42
2018-04-16T02:32:40.499Z,100246.41
2018-04-16T02:35:13.706Z,100245.95
2018-04-16T02:37:46.904Z,100253.02
2018-04-16T02:40:19.991Z,100258.84
2018-04-16T02:42:53.037Z,100262.78
2018-04-16T02:45:26.111Z,100266.30
2018-04-16T02:47:59.156Z,100265.45
2018-04-16T02:50:32.269Z,100276.87
2018-04-16T02:53:05.357Z,100287.53
2018-04-16T02:55:38.578Z,100285.99
2018-04-16T03:01:18.675Z,100296.80
2018-04-16T03:03:51.845Z,100295.47
2018-04-16T03:06:25.048Z,100303.14
2018-04-16T03:08:58.135Z,100302.59
2018-04-16T03:11:31.213Z,100304.63
2018-04-16T03:14:04.379Z,100302.08
2018-04-16T03:16:37.553Z,100294.63
2018-04-16T03:19:10.653Z,100296.31
2018-04-16T03:21:43.749Z,100300.66
2018-04-16T03:24:16.948Z,100299.66
2018-04-16T03:26:50.055Z,100297.11
2018-04-16T03:29:23.304Z,100303.16
2018-04-16T03:35:03.550Z,100306.78
2018-04-16T03:37:36.679Z,100300.82
2018-04-16T03:40:09.874Z,100301.91
2018-04-16T03:42:43.032Z,100305.36
2018-04-16T03:45:16.256Z,100303.86
2018-04-16T03:47:49.464Z,100307.64
2018-04-16T03:50:22.426Z,100302.09
2018-04-16T03:52:55.651Z,100303.38
2018-04-16T03:55:23.597Z,100295.19
2018-04-16T03:57:51.089Z,100299.65
2018-04-16T04:00:18.603Z,100304.41
2018-04-16T04:02:46.063Z,100309.01
2018-04-16T04:05:13.583Z,100299.00
2018-04-16T04:07:41.053Z,100297.16
2018-04-16T04:10:08.556Z,100291.72
2018-04-16T04:12:36.138Z,100296.04
2018-04-16T04:15:03.595Z,100300.83
2018-04-16T04:17:31.113Z,100305.09
2018-04-16T04:19:58.608Z,100307.84
2018-04-16T04:22:38.028Z,100315.19
2018-04-16T04:25:17.371Z,100316.85
2018-04-16T04:27:56.697Z,100313.28
2018-04-16T04:30:36.012Z,100317.09
2018-04-16T04:33:03.491Z,100322.30
2018-04-16T04:35:31.010Z,100325.97
2018-04-16T04:37:58.609Z,100327.45
2018-04-16T04:40:26.100Z,100335.65
2018-04-16T04:42:53.609Z,100338.34
2018-04-16T04:45:21.195Z,100332.52
2018-04-16T04:47:48.666Z,100332.41
2018-04-16T04:50:16.123Z,100337.55
2018-04-16T04:52:43.651Z,100336.69
2018-04-16T04:55:11.163Z,100337.66
2018-04-16T04:57:38.656Z,100335.36
2018-04-16T05:00:06.161Z,100340.16
2018-04-16T05:02:33.615Z,100349.73
2018-04-16T05:05:01.169Z,100354.98
2018-04-16T05:07:28.676Z,100360.05
2018-04-16T05:09:56.187Z,100375.34
2018-04-16T05:12:23.656Z,100369.77
2018-04-16T05:14:51.152Z,100373.98
2018-04-16T05:17:18.636Z,100377.70
2018-04-16T05:19:46.100Z,100385.06
2018-04-16T05:22:13.635Z,100385.98
2018-04-16T05:24:41.166Z,100391.39
2018-04-16T05:27:08.627Z,100393.27
2018-04-16T05:29:36.084Z,100397.34
2018-04-16T05:32:03.562Z,100402.13
2018-04-16T05:34:31.079Z,100403.53
2018-04-16T05:36:58.531Z,100411.21
2018-04-16T05:39:26.019Z,100418.08
2018-04-16T05:41:53.509Z,100419.50
2018-04-16T05:44:21.111Z,100413.58
2018-04-16T05:46:48.600Z,100427.42
2018-04-16T05:49:16.098Z,100426.28
2018-04-16T05:51:43.570Z,100432.22
2018-04-16T05:54:11.053Z,100443.00
2018-04-16T05:56:38.516Z,100443.73
2018-04-16T05:59:06.013Z,100443.00
2018-04-16T06:01:33.510Z,100452.55
2018-04-16T06:04:00.986Z,100459.92
2018-04-16T06:06:28.468Z,100457.19
2018-04-16T06:08:55.927Z,100465.50
2018-04-16T06:11:23.472Z,100462.45
2018-04-16T06:13:51.089Z,100468.20
2018-04-16T06:16:18.551Z,100473.11
2018-04-16T06:18:46.010Z,100476.08
2018-04-16T06:21:13.517Z,100484.44
2018-04-16T06:23:41.017Z,100482.57
2018-04-16T06:26:08.513Z,100489.75
2018-04-16T06:28:36.004Z,100499.80
2018-04-16T06:31:03.503Z,100498.05
2018-04-16T06:33:31.053Z,100499.59
2018-04-16T06:35:58.507Z,100498.20
2018-04-16T06:38:26.009Z,100502.13
2018-04-16T06:40:53.499Z,100501.81
2018-04-16T06:43:21.079Z,100505.91
2018-04-16T06:45:48.537Z,100505.16
2018-04-16T06:48:16.084Z,100506.70
2018-04-16T06:50:43.633Z,100505.75
2018-04-16T06:53:11.118Z,100505.30
2018-04-16T06:55:38.560Z,100501.92
2018-04-16T06:58:06.132Z,100507.53
2018-04-16T07:00:33.613Z,100506.71
2018-04-16T07:03:01.115Z,100507.91
2018-04-16T07:05:28.660Z,100516.25
2018-04-16T07:07:56.141Z,100514.41
2018-04-16T07:10:23.647Z,100508.67
2018-04-16T07:12:51.202Z,100513.17
2018-04-16T07:15:18.697Z,100520.42
2018-04-16T07:17:46.229Z,100527.14
2018-04-16T07:20:13.783Z,100524.06
2018-04-16T07:22:41.321Z,100528.94
2018-04-16T07:25:08.779Z,100531.63
2018-04-16T07:27:36.308Z,100528.37
2018-04-16T07:30:03.764Z,100530.52
2018-04-16T07:32:31.220Z,100536.66
2018-04-16T07:34:58.736Z,100541.24
2018-04-16T07:37:26.208Z,100538.75
2018-04-16T07:39:53.682Z,100537.08
2018-04-16T07:42:21.173Z,100541.02
2018-04-16T07:44:48.740Z,100546.41
2018-04-16T07:47:16.237Z,100549.25
2018-04-16T07:49:43.766Z,100546.27
2018-04-16T07:52:11.273Z,100549.74
2018-04-16T07:54:38.780Z,100559.77
2018-04-16T07:57:06.351Z,100558.36
2018-04-16T07:59:33.820Z,100566.14
2018-04-16T08:02:01.303Z,100560.31
2018-04-16T08:04:28.758Z,100565.73
2018-04-16T08:06:56.219Z,100570.71
2018-04-16T08:09:23.724Z,100573.34
2018-04-16T08:11:51.204Z,100572.61
2018-04-16T08:14:18.701Z,100575.61
2018-04-16T08:16:46.199Z,100575.66
2018-04-16T08:19:13.693Z,100578.09
2018-04-16T08:21:41.160Z,100586.70
2018-04-16T08:24:08.732Z,100585.25
2018-04-16T08:26:36.233Z,100585.25
2018-04-16T08:29:03.701Z,100574.11
2018-04-16T08:31:31.200Z,100582.45
2018-04-16T08:33:58.659Z,100578.72
2018-04-16T08:36:26.135Z,100584.20
2018-04-16T08:38:53.603Z,100582.08
2018-04-16T08:41:21.086Z,100581.80
2018-04-16T08:43:48.657Z,100581.14
2018-04-16T08:46:16.179Z,100580.20
2018-04-16T08:48:43.667Z,100578.77
2018-04-16T08:51:11.138Z,100580.17
2018-04-16T08:53:38.634Z,100571.58
2018-04-16T08:56:06.162Z,100572.09
2018-04-16T08:58:33.656Z,100569.52
2018-04-16T09:01:01.166Z,100567.25
2018-04-16T09:03:28.658Z,100572.84
2018-04-16T09:05:56.122Z,100570.44
2018-04-16T09:08:23.635Z,100574.05
2018-04-16T09:10:51.109Z,100562.38
2018-04-16T09:13:18.555Z,100561.22
2018-04-16T09:15:46.035Z,100560.34
2018-04-16T09:18:13.500Z,100557.48
2018-04-16T09:20:40.963Z,100554.97
2018-04-16T09:23:08.450Z,100550.51
2018-04-16T09:25:35.938Z,100553.27
2018-04-16T09:28:03.489Z,100555.56
2018-04-16T09:30:30.972Z,100556.77
2018-04-16T09:32:58.499Z,100555.72
2018-04-16T09:35:25.943Z,100556.48
2018-04-16T09:37:53.450Z,100549.52
2018-04-16T09:40:20.937Z,100541.15
2018-04-16T09:42:48.396Z,100542.16
2018-04-16T09:45:15.953Z,100541.39
2018-04-16T09:47:43.414Z,100541.46
2018-04-16T09:50:10.880Z,100535.60
2018-04-16T09:52:38.466Z,100535.33
2018-04-16T09:55:05.965Z,100540.16
2018-04-16T09:57:33.451Z,100544.22
2018-04-16T10:00:00.985Z,100547.13
2018-04-16T10:02:28.502Z,100548.17
2018-04-16T10:04:55.954Z,100556.44
2018-04-16T10:07:23.412Z,100550.22
2018-04-16T10:09:50.925Z,100554.36
2018-04-16T10:12:18.454Z,100555.48
2018-04-16T10:14:45.934Z,100555.98
2018-04-16T10:17:13.424Z,100560.27
2018-04-16T10:19:40.917Z,100566.25
2018-04-16T10:22:08.431Z,100566.02
2018-04-16T10:24:35.896Z,100566.23
2018-04-16T10:27:03.394Z,100565.13
2018-04-16T10:29:30.880Z,100560.80
2018-04-16T10:31:58.342Z,100560.45
2018-04-16T10:34:25.841Z,100564.27
2018-04-16T10:36:53.337Z,100559.19
2018-04-16T10:39:20.840Z,100553.61
2018-04-16T10:41:48.292Z,100554.77
2018-04-16T10:44:15.861Z,100552.79
2018-04-16T10:46:43.357Z,100551.97
2018-04-16T10:49:10.861Z,100558.55
2018-04-16T10:51:38.484Z,100554.17
2018-04-16T10:54:05.965Z,100549.27
2018-04-16T10:56:33.494Z,100547.09
2018-04-16T10:59:00.969Z,100554.66
2018-04-16T11:01:28.461Z,100558.36
2018-04-16T11:03:55.957Z,100560.28
2018-04-16T11:06:23.484Z,100556.88
2018-04-16T11:08:50.978Z,100554.30
2018-04-16T11:11:18.456Z,100547.29
2018-04-16T11:13:45.951Z,100545.65
2018-04-16T11:16:13.441Z,100546.50
2018-04-16T11:18:40.944Z,100549.37
2018-04-16T11:21:08.458Z,100551.09
2018-04-16T11:23:35.950Z,100550.55
2018-04-16T11:26:03.487Z,100553.05
2018-04-16T11:28:30.986Z,100552.64
2018-04-16T11:30:58.469Z,100555.92
2018-04-16T11:33:26.137Z,100561.14
2018-04-16T11:35:53.600Z,100563.29
2018-04-16T11:38:21.066Z,100563.68
2018-04-16T11:40:48.539Z,100555.59
2018-04-16T11:43:16.055Z,100556.63
2018-04-16T11:45:43.622Z,100562.98
2018-04-16T11:48:11.088Z,100563.39
2018-04-16T11:50:38.639Z,100572.92
2018-04-16T11:53:06.120Z,100565.23
2018-04-16T11:55:33.661Z,100560.58
2018-04-16T11:58:01.165Z,100567.13
2018-04-16T12:00:28.676Z,100567.95
2018-04-16T12:02:56.184Z,100569.70
2018-04-16T12:05:23.689Z,100570.99
2018-04-16T12:07:51.168Z,100571.30
2018-04-16T12:10:18.632Z,100580.16
2018-04-16T12:12:46.114Z,100578.25
2018-04-16T12:15:13.624Z,100584.29
2018-04-16T12:17:41.119Z,100590.17
2018-04-16T12:20:08.650Z,100591.53
2018-04-16T12:22:36.120Z,100595.57
2018-04-16T12:25:03.580Z,100590.19
2018-04-16T12:27:31.081Z,100592.46
2018-04-16T12:29:58.546Z,100588.52
2018-04-16T12:32:26.064Z,100594.20
2018-04-16T12:34:53.573Z,100592.44
2018-04-16T12:37:21.080Z,100595.61
2018-04-16T12:39:48.550Z,100597.11
2018-04-16T12:42:16.064Z,100596.02
2018-04-16T12:44:43.524Z,100595.27
2018-04-16T12:47:10.992Z,100609.48
2018-04-16T12:49:38.552Z,100607.45
2018-04-16T12:52:06.019Z,100614.45
2018-04-16T12:54:33.468Z,100611.66
2018-04-16T12:57:01.055Z,100615.67
2018-04-16T12:59:28.539Z,100617.55
2018-04-16T13:02:12.841Z,100615.03
2018-04-16T13:04:40.392Z,100607.90
2018-04-16T13:07:07.863Z,100607.73
2018-04-16T13:09:35.345Z,100611.54
2018-04-16T13:12:02.846Z,100611.02
2018-04-16T13:14:30.312Z,100609.08
2018-04-16T13:16:57.797Z,100613.27
2018-04-16T13:19:25.280Z,100612.54
2018-04-16T13:21:52.757Z,100608.64
2018-04-16T13:24:20.361Z,100613.46
2018-04-16T13:26:47.870Z,100616.77
2018-04-16T13:29:15.335Z,100611.44
2018-04-16T13:31:42.829Z,100617.45
2018-04-16T13:34:10.283Z,100620.33
2018-04-16T13:36:37.751Z,100620.11
2018-04-16T13:39:05.982Z,100624.41
2018-04-16T13:41:33.498Z,100632.20
2018-04-16T13:44:01.072Z,100634.21
2018-04-16T13:46:28.567Z,100638.55
2018-04-16T13:48:56.064Z,100632.78
2018-04-16T13:51:23.648Z,100632.84
2018-04-16T13:53:51.161Z,100638.33
2018-04-16T13:56:18.625Z,100645.59
2018-04-16T13:58:46.084Z,100644.25
2018-04-16T14:01:13.567Z,100647.67
2018-04-16T14:03:41.076Z,100653.38
2018-04-16T14:06:08.550Z,100649.27
2018-04-16T14:08:36.053Z,100662.11
2018-04-16T14:11:03.542Z,100660.05
2018-04-16T14:13:31.008Z,100662.46
2018-04-16T14:15:58.484Z,100667.23
2018-04-16T14:18:25.991Z,100666.57
2018-04-16T14:20:53.473Z,100677.37
2018-04-16T14:23:20.931Z,100667.94
2018-04-16T14:25:48.447Z,100674.23
2018-04-16T14:28:15.944Z,100675.45
2018-04-16T14:30:43.497Z,100677.44
2018-04-16T14:33:11.055Z,100685.46
2018-04-16T14:35:38.545Z,100679.12
2018-04-16T14:38:06.159Z,100685.41
2018-04-16T14:40:33.671Z,100690.80
2018-04-16T14:43:01.199Z,100690.16
2018-04-16T14:45:28.664Z,100688.44
2018-04-16T14:47:56.172Z,100694.22
2018-04-16T14:50:23.676Z,100695.92
2018-04-16T14:52:51.152Z,100706.05
2018-04-16T14:55:18.615Z,100703.18
2018-04-16T14:57:46.152Z,100699.09
2018-04-16T15:00:13.655Z,100699.05
2018-04-16T15:02:41.142Z,100702.53
2018-04-16T15:05:08.714Z,100707.53
2018-04-16T15:07:36.173Z,100706.44
2018-04-16T15:10:03.631Z,100709.19
2018-04-16T15:12:31.167Z,100714.70
2018-04-16T15:14:58.759Z,100716.18
2018-04-16T15:17:26.250Z,100717.33
2018-04-16T15:19:53.772Z,100721.44
2018-04-16T15:22:21.283Z,100723.00
2018-04-16T15:24:48.737Z,100730.50
2018-04-16T15:27:16.224Z,100725.73
2018-04-16T15:29:43.736Z,100727.28
2018-04-16T15:32:11.247Z,100735.80
2018-04-16T15:34:38.756Z,100735.69
2018-04-16T15:37:06.259Z,100727.64
2018-04-16T15:39:33.796Z,100737.97
2018-04-16T15:42:01.226Z,100733.94
2018-04-16T15:44:28.703Z,100736.09
2018-04-16T15:46:56.151Z,100738.47
2018-04-16T15:49:23.608Z,100738.84
2018-04-16T15:51:51.108Z,100737.86
2018-04-16T15:54:18.598Z,100739.74
2018-04-16T15:56:46.072Z,100744.63
2018-04-16T15:59:13.564Z,100747.38
2018-04-16T16:01:41.019Z,100750.81
2018-04-16T16:04:08.475Z,100750.76
2018-04-16T16:06:36.014Z,100753.79
2018-04-16T16:09:03.479Z,100748.53
2018-04-16T16:11:30.996Z,100755.27
2018-04-16T16:13:58.490Z,100758.48
2018-04-16T16:16:26.005Z,100755.95
2018-04-16T16:18:53.519Z,100758.63
2018-04-16T16:21:21.021Z,100761.23
2018-04-16T16:23:48.486Z,100759.18
2018-04-16T16:26:16.030Z,100757.98
2018-04-16T16:28:43.634Z,100757.38
2018-04-16T16:31:11.124Z,100759.91
2018-04-16T16:33:38.684Z,100759.83
2018-04-16T16:36:06.225Z,100760.64
2018-04-16T16:38:33.684Z,100756.80
2018-04-16T16:41:01.133Z,100761.78
2018-04-16T16:43:28.650Z,100767.86
2018-04-16T16:45:56.220Z,100768.76
2018-04-16T16:48:23.721Z,100769.17
2018-04-16T16:50:51.238Z,100765.89
2018-04-16T16:53:18.711Z,100768.45
2018-04-16T16:55:46.177Z,100773.09
2018-04-16T16:58:13.651Z,100768.84
2018-04-16T17:00:41.134Z,100776.77
2018-04-16T17:03:08.599Z,100777.95
2018-04-16T17:05:36.141Z,100777.41
2018-04-16T17:08:03.683Z,100780.08
2018-04-16T17:10:31.198Z,100780.05
2018-04-16T17:12:58.710Z,100785.16
2018-04-16T17:15:26.165Z,100785.00
2018-04-16T17:17:53.629Z,100786.57
2018-04-16T17:20:21.216Z,100789.53
2018-04-16T17:22:48.711Z,100789.30
2018-04-16T17:25:16.217Z,100788.72
2018-04-16T17:27:43.725Z,100794.88
2018-04-16T17:30:11.214Z,100792.16
2018-04-16T17:32:38.683Z,100800.47
2018-04-16T17:35:06.185Z,100798.73
2018-04-16T17:37:33.694Z,100801.36
2018-04-16T17:40:01.356Z,100802.52
2018-04-16T17:42:28.811Z,100804.97
2018-04-16T17:44:56.290Z,100802.52
2018-04-16T17:47:23.801Z,100805.08
2018-04-16T17:49:51.269Z,100812.16
2018-04-16T17:52:18.760Z,100811.62
2018-04-16T17:54:46.285Z,100813.50
2018-04-16T17:57:13.789Z,100813.91
2018-04-16T17:59:41.335Z,100812.67
2018-04-16T18:02:08.863Z,100815.27
2018-04-16T18:04:36.402Z,100828.62
2018-04-16T18:07:03.902Z,100828.77
2018-04-16T18:09:31.414Z,100826.98
2018-04-16T18:11:58.907Z,100837.73
2018-04-16T18:14:26.397Z,100840.28
2018-04-16T18:16:53.900Z,100847.92
2018-04-16T18:19:21.379Z,100853.09
2018-04-16T18:21:48.914Z,100848.19
2018-04-16T18:24:16.410Z,100855.11
2018-04-16T18:26:43.901Z,100849.24
2018-04-16T18:29:11.428Z,100852.92
2018-04-16T18:31:38.911Z,100856.47
2018-04-16T18:34:06.402Z,100859.64
2018-04-16T18:36:33.911Z,100857.31
2018-04-16T18:39:01.435Z,100865.50
2018-04-16T18:41:29.012Z,100863.28
2018-04-16T18:43:56.492Z,100874.09
2018-04-16T18:46:24.085Z,100876.81
2018-04-16T18:48:51.588Z,100878.45
2018-04-16T18:51:19.084Z,100892.08
2018-04-16T18:53:46.582Z,100892.35
2018-04-16T18:56:14.095Z,100896.31
2018-04-16T18:58:41.579Z,100898.63
2018-04-16T19:01:09.114Z,100904.35
2018-04-16T19:03:36.593Z,100912.94
2018-04-16T19:06:04.161Z,100914.20
2018-04-16T19:08:31.695Z,100917.81
2018-04-16T19:10:59.362Z,100917.30
2018-04-16T19:13:26.831Z,100912.66
2018-04-16T19:15:54.383Z,100922.20
2018-04-16T19:18:21.845Z,100919.75
2018-04-16T19:20:55.091Z,100924.66
2018-04-16T19:23:22.555Z,100930.59
2018-04-16T19:25:50.040Z,100935.64
2018-04-16T19:28:17.499Z,100924.25
2018-04-16T19:30:44.960Z,100940.88
2018-04-16T19:33:18.093Z,100945.92
2018-04-16T19:35:45.566Z,100948.71
2018-04-16T19:38:13.024Z,100946.72
2018-04-16T19:40:40.601Z,100951.31
2018-04-16T19:43:08.094Z,100950.32
2018-04-16T19:45:35.523Z,100954.36
2018-04-16T19:48:02.997Z,100953.65
2018-04-16T19:50:30.477Z,100972.04
2018-04-16T19:52:58.012Z,100966.13
2018-04-16T19:55:25.515Z,100968.23
2018-04-16T19:57:58.651Z,100973.50
2018-04-16T20:00:26.116Z,100974.28
2018-04-16T20:02:59.225Z,100976.42
2018-04-16T20:05:26.704Z,100976.37
2018-04-16T20:07:54.159Z,100986.45
2018-04-16T20:10:21.722Z,100993.85
2018-04-16T20:12:49.179Z,100992.44
2018-04-16T20:15:16.686Z,100994.04
2018-04-16T20:17:44.220Z,100988.55
2018-04-16T20:20:11.719Z,100999.94
2018-04-16T20:22:39.219Z,100992.84
2018-04-16T20:25:06.777Z,100999.58
2018-04-16T20:27:34.277Z,101004.34
2018-04-16T20:30:01.798Z,101009.87
2018-04-16T20:32:29.313Z,101013.88
2018-04-16T20:34:56.813Z,101016.45
2018-04-16T20:37:24.352Z,101018.22
2018-04-16T20:39:51.848Z,101018.64
2018-04-16T20:42:19.314Z,101020.23
2018-04-16T20:44:46.805Z,101016.41
2018-04-16T20:47:14.321Z,101016.58
2018-04-16T20:49:41.863Z,101020.44
2018-04-16T20:52:09.350Z,101018.75
2018-04-16T20:54:36.913Z,101027.91
2018-04-16T20:57:04.432Z,101026.95
2018-04-16T20:59:31.969Z,101038.08
2018-04-16T21:01:59.479Z,101041.98
2018-04-16T21:04:26.935Z,101045.32
2018-04-16T21:06:54.396Z,101044.86
2018-04-16T21:09:21.925Z,101046.03
2018-04-16T21:11:49.406Z,101050.55
2018-04-16T21:14:16.895Z,101053.09
2018-04-16T21:16:44.390Z,101050.41
2018-04-16T21:19:11.881Z,101053.55
2018-04-16T21:21:39.367Z,101054.27
2018-04-16T21:24:06.844Z,101061.83
2018-04-16T21:26:34.340Z,101059.95
2018-04-16T21:29:01.871Z,101061.25
2018-04-16T21:31:29.359Z,101059.23
2018-04-16T21:33:56.925Z,101063.83
2018-04-16T21:36:24.403Z,101062.89
2018-04-16T21:38:51.895Z,101061.95
2018-04-16T21:41:19.483Z,101068.73
2018-04-16T21:43:46.982Z,101073.16
2018-04-16T21:46:15.118Z,101075.66
2018-04-16T21:48:42.632Z,101074.59
2018-04-16T21:51:10.147Z,101076.73
2018-04-16T21:53:37.647Z,101084.30
2018-04-16T21:56:05.165Z,101089.63
2018-04-16T21:58:32.729Z,101093.23
2018-04-16T22:01:00.259Z,101092.86
2018-04-16T22:03:27.798Z,101100.41
2018-04-16T22:05:55.266Z,101097.02
2018-04-16T22:08:22.724Z,101105.18
2018-04-16T22:10:50.243Z,101102.17
2018-04-16T22:13:17.715Z,101109.19
2018-04-16T22:15:45.221Z,101109.60
2018-04-16T22:18:12.684Z,101116.23
2018-04-16T22:20:40.152Z,101113.33
2018-04-16T22:23:07.627Z,101119.59
2018-04-16T22:25:35.095Z,101126.58
2018-04-16T22:28:02.605Z,101125.84
2018-04-16T22:30:30.083Z,101119.05
2018-04-16T22:32:57.574Z,101125.64
2018-04-16T22:35:25.031Z,101113.91
2018-04-16T22:37:52.563Z,101118.86
2018-04-16T22:40:20.035Z,101120.63
2018-04-16T22:42:47.492Z,101124.55
2018-04-16T22:45:14.968Z,101132.80
2018-04-16T22:47:42.492Z,101130.33
2018-04-16T22:50:09.964Z,101130.59
2018-04-16T22:52:37.469Z,101135.84
2018-04-16T22:55:04.992Z,101141.90
2018-04-16T22:57:32.451Z,101152.34
2018-04-16T22:59:59.914Z,101150.92
2018-04-16T23:02:27.392Z,101164.73
2018-04-16T23:04:54.923Z,101171.42
2018-04-16T23:07:22.394Z,101174.97
2018-04-16T23:09:49.904Z,101178.23
2018-04-16T23:12:17.380Z,101181.08
2018-04-16T23:14:44.913Z,101182.78
2018-04-16T23:17:12.409Z,101188.84
2018-04-16T23:19:39.902Z,101187.16
2018-04-16T23:22:07.457Z,101190.63
2018-04-16T23:24:34.919Z,101188.16
2018-04-16T23:27:02.423Z,101191.38
2018-04-16T23:29:29.932Z,101201.76
2018-04-16T23:31:57.434Z,101198.51
2018-04-16T23:34:24.953Z,101187.56
2018-04-16T23:36:52.447Z,101205.88
2018-04-16T23:39:19.905Z,101210.73
2018-04-16T23:41:47.431Z,101204.55
2018-04-16T23:44:14.892Z,101212.20
2018-04-16T23:46:42.383Z,101211.66
2018-04-16T23:49:09.911Z,101212.27
2018-04-16T23:51:37.375Z,101208.95
2018-04-16T23:54:04.861Z,101220.69
2018-04-16T23:56:32.500Z,101222.88
2018-04-16T23:59:00.114Z,101229.75
